createdAt,value
2022-11-12T00:00:54.042Z,102568.56
2022-11-12T00:03:21.037Z,102568.75
2022-11-12T00:05:49.309Z,102580.31
2022-11-12T00:08:15.672Z,102572.41
2022-11-12T00:10:42.146Z,102564.53
2022-11-12T00:13:08.747Z,102567.66
2022-11-12T00:15:35.179Z,102571.47
2022-11-12T00:18:01.805Z,102574.41
2022-11-12T00:20:28.560Z,102573.22
2022-11-12T00:22:55.261Z,102575.50
2022-11-12T00:25:21.862Z,102570.09
2022-11-12T00:27:48.252Z,102574.94
2022-11-12T00:30:14.789Z,102579.59
2022-11-12T00:32:41.217Z,102592.94
2022-11-12T00:35:12.440Z,102590.41
2022-11-12T00:37:40.244Z,102588.84
2022-11-12T00:40:07.566Z,102596.75
2022-11-12T00:42:34.005Z,102601.75
2022-11-12T00:45:00.543Z,102606.88
2022-11-12T00:47:26.987Z,102603.88
2022-11-12T00:49:53.386Z,102601.31
2022-11-12T00:52:19.838Z,102605.53
2022-11-12T00:54:46.282Z,102616.38
2022-11-12T00:57:12.694Z,102607.69
2022-11-12T00:59:39.081Z,102617.09
2022-11-12T01:02:05.532Z,102609.09
2022-11-12T01:04:32.004Z,102611.47
2022-11-12T01:06:58.459Z,102605.25
2022-11-12T01:09:24.957Z,102608.63
2022-11-12T01:11:51.398Z,102597.00
2022-11-12T01:14:17.845Z,102598.09
2022-11-12T01:16:44.413Z,102604.56
2022-11-12T01:19:12.954Z,102611.13
2022-11-12T01:21:41.993Z,102605.34
2022-11-12T01:24:09.067Z,102598.53
2022-11-12T01:26:36.197Z,102599.34
2022-11-12T01:29:03.254Z,102596.69
2022-11-12T01:31:33.077Z,102600.13
2022-11-12T01:34:02.319Z,102597.13
2022-11-12T01:36:33.550Z,102592.38
2022-11-12T01:39:00.160Z,102605.66
2022-11-12T01:41:30.638Z,102598.84
2022-11-12T01:44:14.778Z,102606.81
2022-11-12T01:46:55.309Z,102609.38
2022-11-12T01:49:28.539Z,102611.34
2022-11-12T01:51:58.767Z,102613.78
2022-11-12T01:54:26.497Z,102614.34
2022-11-12T01:56:54.815Z,102605.19
2022-11-12T01:59:28.762Z,102614.78
2022-11-12T02:01:55.769Z,102625.19
2022-11-12T02:04:22.813Z,102618.91
2022-11-12T02:06:51.682Z,102615.22
2022-11-12T02:09:18.258Z,102622.28
2022-11-12T02:11:44.650Z,102609.91
2022-11-12T02:14:11.217Z,102612.41
2022-11-12T02:16:41.053Z,102604.22
2022-11-12T02:19:11.017Z,102618.91
2022-11-12T02:21:38.259Z,102607.97
2022-11-12T02:24:24.900Z,102615.09
2022-11-12T02:26:55.154Z,102615.31
2022-11-12T02:29:22.413Z,102609.91
2022-11-12T02:31:48.871Z,102612.16
2022-11-12T02:34:15.246Z,102619.38
2022-11-12T02:36:41.679Z,102622.47
2022-11-12T02:39:08.161Z,102622.38
2022-11-12T02:41:34.553Z,102620.09
2022-11-12T02:44:01.177Z,102615.50
2022-11-12T02:46:27.616Z,102629.47
2022-11-12T02:48:54.051Z,102627.63
2022-11-12T02:51:20.499Z,102624.94
2022-11-12T02:53:46.925Z,102620.75
2022-11-12T02:56:13.335Z,102628.09
2022-11-12T02:58:39.758Z,102621.75
2022-11-12T03:01:06.368Z,102624.41
2022-11-12T03:03:32.835Z,102633.88
2022-11-12T03:06:01.247Z,102638.84
2022-11-12T03:08:28.497Z,102621.88
2022-11-12T03:10:55.142Z,102626.06
2022-11-12T03:13:21.854Z,102624.94
2022-11-12T03:15:48.501Z,102632.44
2022-11-12T03:18:15.313Z,102634.78
2022-11-12T03:20:41.774Z,102644.03
2022-11-12T03:23:10.842Z,102646.59
2022-11-12T03:25:37.254Z,102643.44
2022-11-12T03:28:09.189Z,102646.81
2022-11-12T03:30:38.515Z,102650.41
2022-11-12T03:33:06.087Z,102644.81
2022-11-12T03:35:33.737Z,102635.47
2022-11-12T03:38:01.109Z,102633.53
2022-11-12T03:40:28.186Z,102641.97
2022-11-12T03:42:54.868Z,102648.09
2022-11-12T03:45:23.228Z,102645.47
2022-11-12T03:47:51.610Z,102636.97
2022-11-12T03:50:19.700Z,102637.31
2022-11-12T03:52:53.308Z,102656.56
2022-11-12T03:55:21.573Z,102656.78
2022-11-12T03:57:51.191Z,102669.78
2022-11-12T04:00:18.700Z,102665.38
2022-11-12T04:02:45.385Z,102668.56
2022-11-12T04:05:30.293Z,102673.94
2022-11-12T04:08:24.727Z,102679.59
2022-11-12T04:10:51.855Z,102685.72
2022-11-12T04:13:30.362Z,102690.25
2022-11-12T04:16:20.843Z,102689.28
2022-11-12T04:19:08.554Z,102676.69
2022-11-12T04:21:55.725Z,102678.69
2022-11-12T04:24:51.504Z,102684.59
2022-11-12T04:27:24.967Z,102679.63
2022-11-12T04:30:10.889Z,102681.47
2022-11-12T04:32:46.522Z,102677.91
2022-11-12T04:35:13.272Z,102680.41
2022-11-12T04:37:45.900Z,102684.09
2022-11-12T04:40:41.155Z,102690.25
2022-11-12T04:43:29.149Z,102682.22
2022-11-12T04:45:56.566Z,102682.69
2022-11-12T04:48:25.457Z,102687.16
2022-11-12T04:51:00.818Z,102691.44
2022-11-12T04:53:28.683Z,102684.09
2022-11-12T04:55:57.011Z,102676.47
2022-11-12T04:58:24.721Z,102680.91
2022-11-12T05:00:51.654Z,102687.44
2022-11-12T05:03:18.467Z,102678.56
2022-11-12T05:05:44.929Z,102681.22
2022-11-12T05:08:11.339Z,102681.63
2022-11-12T05:10:37.767Z,102683.34
2022-11-12T05:13:04.195Z,102677.69
2022-11-12T05:15:30.619Z,102674.44
2022-11-12T05:17:57.359Z,102666.81
2022-11-12T05:20:23.777Z,102674.81
2022-11-12T05:23:04.825Z,102673.66
2022-11-12T05:25:32.422Z,102686.22
2022-11-12T05:27:58.826Z,102688.00
2022-11-12T05:30:25.226Z,102680.19
2022-11-12T05:32:51.650Z,102692.56
2022-11-12T05:35:18.038Z,102679.38
2022-11-12T05:37:44.450Z,102675.47
2022-11-12T05:40:11.385Z,102680.19
2022-11-12T05:42:37.774Z,102685.00
2022-11-12T05:45:04.666Z,102676.91
2022-11-12T05:47:31.082Z,102672.03
2022-11-12T05:49:57.466Z,102681.94
2022-11-12T05:52:23.877Z,102688.00
2022-11-12T05:54:50.306Z,102692.59
2022-11-12T05:57:16.698Z,102687.44
2022-11-12T05:59:43.129Z,102693.06
2022-11-12T06:02:09.579Z,102702.38
2022-11-12T06:04:36.064Z,102709.88
2022-11-12T06:07:04.172Z,102707.38
2022-11-12T06:09:30.831Z,102698.00
2022-11-12T06:11:57.217Z,102707.69
2022-11-12T06:14:23.646Z,102717.56
2022-11-12T06:16:50.069Z,102702.50
2022-11-12T06:19:16.457Z,102707.47
2022-11-12T06:21:42.858Z,102716.03
2022-11-12T06:24:09.695Z,102713.78
2022-11-12T06:26:37.818Z,102716.66
2022-11-12T06:29:04.229Z,102718.34
2022-11-12T06:31:30.673Z,102718.38
2022-11-12T06:33:57.155Z,102734.50
2022-11-12T06:36:24.458Z,102749.97
2022-11-12T06:38:50.901Z,102745.06
2022-11-12T06:41:17.510Z,102721.69
2022-11-12T06:43:43.952Z,102743.84
2022-11-12T06:46:15.890Z,102751.50
2022-11-12T06:48:42.575Z,102751.22
2022-11-12T06:51:12.589Z,102738.91
2022-11-12T06:53:39.062Z,102745.81
2022-11-12T06:56:07.219Z,102741.75
2022-11-12T06:58:34.118Z,102743.69
2022-11-12T07:01:10.984Z,102755.75
2022-11-12T07:03:39.089Z,102751.81
2022-11-12T07:06:07.977Z,102750.91
2022-11-12T07:08:35.122Z,102764.06
2022-11-12T07:11:01.627Z,102769.22
2022-11-12T07:13:30.564Z,102759.34
2022-11-12T07:15:58.631Z,102770.72
2022-11-12T07:18:26.190Z,102762.94
2022-11-12T07:20:59.257Z,102775.34
2022-11-12T07:23:26.258Z,102771.53
2022-11-12T07:26:23.518Z,102787.75
2022-11-12T07:28:51.768Z,102783.47
2022-11-12T07:31:19.861Z,102771.22
2022-11-12T07:33:48.850Z,102773.47
2022-11-12T07:36:20.883Z,102792.06
2022-11-12T07:38:51.642Z,102787.56
2022-11-12T07:41:23.296Z,102791.19
2022-11-12T07:43:51.869Z,102791.31
2022-11-12T07:46:27.715Z,102794.72
2022-11-12T07:48:54.746Z,102788.44
2022-11-12T07:51:24.061Z,102795.56
2022-11-12T07:53:58.729Z,102793.91
2022-11-12T07:56:27.497Z,102791.66
2022-11-12T07:58:53.929Z,102801.53
2022-11-12T08:01:23.474Z,102813.25
2022-11-12T08:03:49.888Z,102806.03
2022-11-12T08:06:16.449Z,102787.63
2022-11-12T08:08:42.833Z,102790.72
2022-11-12T08:11:09.369Z,102800.06
2022-11-12T08:13:35.801Z,102804.81
2022-11-12T08:16:02.243Z,102802.38
2022-11-12T08:18:29.810Z,102805.16
2022-11-12T08:21:01.030Z,102816.25
2022-11-12T08:23:27.754Z,102816.00
2022-11-12T08:25:58.803Z,102806.78
2022-11-12T08:28:25.785Z,102796.91
2022-11-12T08:30:52.477Z,102789.66
2022-11-12T08:33:18.865Z,102790.00
2022-11-12T08:35:45.347Z,102807.06
2022-11-12T08:38:13.944Z,102815.19
2022-11-12T08:40:40.963Z,102805.28
2022-11-12T08:43:09.713Z,102779.97
2022-11-12T08:45:40.651Z,102772.00
2022-11-12T08:48:14.459Z,102794.13
2022-11-12T08:50:41.528Z,102805.22
2022-11-12T08:53:10.591Z,102795.72
2022-11-12T08:55:37.437Z,102790.25
2022-11-12T08:58:04.720Z,102774.22
2022-11-12T09:00:34.274Z,102789.94
2022-11-12T09:03:02.221Z,102790.38
2022-11-12T09:05:29.106Z,102787.50
2022-11-12T09:07:58.608Z,102778.53
2022-11-12T09:10:25.763Z,102780.47
2022-11-12T09:12:52.693Z,102777.97
2022-11-12T09:15:37.030Z,102780.31
2022-11-12T09:18:11.944Z,102783.72
2022-11-12T09:20:38.337Z,102775.16
2022-11-12T09:23:14.144Z,102767.22
2022-11-12T09:25:41.517Z,102773.09
2022-11-12T09:28:08.502Z,102778.97
2022-11-12T09:30:36.227Z,102781.84
2022-11-12T09:33:02.682Z,102774.31
2022-11-12T09:35:29.706Z,102780.75
2022-11-12T09:37:58.259Z,102795.78
2022-11-12T09:40:37.130Z,102792.72
2022-11-12T09:43:15.594Z,102797.66
2022-11-12T09:45:50.292Z,102803.06
2022-11-12T09:48:32.542Z,102807.06
2022-11-12T09:51:06.370Z,102802.97
2022-11-12T09:53:44.095Z,102798.53
2022-11-12T09:56:12.826Z,102799.44
2022-11-12T09:58:39.245Z,102815.97
2022-11-12T10:01:15.028Z,102807.00
2022-11-12T10:04:07.916Z,102810.50
2022-11-12T10:06:42.791Z,102811.81
2022-11-12T10:09:11.921Z,102813.50
2022-11-12T10:12:13.486Z,102803.97
2022-11-12T10:14:59.369Z,102808.19
2022-11-12T10:17:42.040Z,102818.97
2022-11-12T10:20:08.423Z,102836.16
2022-11-12T10:22:52.859Z,102849.38
2022-11-12T10:25:20.297Z,102841.25
2022-11-12T10:27:48.268Z,102836.16
2022-11-12T10:30:19.970Z,102836.81
2022-11-12T10:32:48.163Z,102846.44
2022-11-12T10:35:18.170Z,102842.94
2022-11-12T10:37:57.438Z,102824.69
2022-11-12T10:40:36.417Z,102829.47
2022-11-12T10:43:06.825Z,102836.44
2022-11-12T10:45:33.391Z,102834.09
2022-11-12T10:48:00.463Z,102844.00
2022-11-12T10:50:43.332Z,102833.31
2022-11-12T10:53:12.307Z,102827.06
2022-11-12T10:55:56.533Z,102835.53
2022-11-12T10:58:23.128Z,102830.00
2022-11-12T11:01:14.330Z,102824.59
2022-11-12T11:03:47.760Z,102838.25
2022-11-12T11:06:14.118Z,102830.72
2022-11-12T11:08:46.908Z,102842.44
2022-11-12T11:11:16.307Z,102838.38
2022-11-12T11:13:46.962Z,102834.72
2022-11-12T11:16:21.221Z,102818.00
2022-11-12T11:19:00.692Z,102814.56
2022-11-12T11:21:42.247Z,102820.38
2022-11-12T11:24:32.430Z,102821.47
2022-11-12T11:27:28.401Z,102808.06
2022-11-12T11:30:01.287Z,102815.97
2022-11-12T11:32:49.574Z,102819.50
2022-11-12T11:35:28.047Z,102811.09
2022-11-12T11:38:23.428Z,102812.34
2022-11-12T11:41:11.449Z,102815.88
2022-11-12T11:43:50.193Z,102813.50
2022-11-12T11:46:50.200Z,102817.50
2022-11-12T11:49:28.646Z,102820.09
2022-11-12T11:52:08.890Z,102826.28
2022-11-12T11:54:51.404Z,102830.56
2022-11-12T11:57:29.909Z,102838.66
2022-11-12T12:00:39.991Z,102861.22
2022-11-12T12:03:20.166Z,102903.34
2022-11-12T12:06:14.430Z,102957.78
2022-11-12T12:09:05.098Z,102994.72
2022-11-12T12:11:52.794Z,103042.31
2022-11-12T12:14:53.138Z,102984.09
2022-11-12T12:17:31.850Z,102940.56
2022-11-12T12:20:20.539Z,102932.56
2022-11-12T12:23:08.289Z,102867.72
2022-11-12T12:25:40.372Z,102855.88
2022-11-12T12:28:21.414Z,102939.63
2022-11-12T12:30:51.798Z,102946.16
2022-11-12T12:33:38.814Z,102977.06
2022-11-12T12:36:12.282Z,102901.16
2022-11-12T12:38:44.721Z,102813.75
2022-11-12T12:41:50.653Z,102768.09
2022-11-12T12:44:17.071Z,102791.41
2022-11-12T12:46:48.997Z,102754.28
2022-11-12T12:49:29.458Z,102670.41
2022-11-12T12:51:56.162Z,102609.53
2022-11-12T12:54:34.786Z,102625.16
2022-11-12T12:57:03.775Z,102636.06
2022-11-12T12:59:30.441Z,102605.25
2022-11-12T13:02:01.079Z,102587.28
2022-11-12T13:04:57.183Z,102596.31
2022-11-12T13:07:48.091Z,102622.28
2022-11-12T13:10:45.643Z,102747.28
2022-11-12T13:13:18.117Z,102717.22
2022-11-12T13:15:48.459Z,102721.41
2022-11-12T13:18:36.936Z,102749.78
2022-11-12T13:21:08.403Z,102863.00
2022-11-12T13:24:12.310Z,102930.44
2022-11-12T13:26:53.666Z,102935.69
2022-11-12T13:29:28.979Z,102877.25
2022-11-12T13:32:27.815Z,102797.84
2022-11-12T13:35:27.105Z,102812.03
2022-11-12T13:38:08.777Z,102900.13
2022-11-12T13:40:45.107Z,102938.81
2022-11-12T13:43:37.293Z,102945.69
2022-11-12T13:46:06.697Z,102920.03
2022-11-12T13:48:49.153Z,102910.06
2022-11-12T13:51:21.197Z,102897.59
2022-11-12T13:53:47.666Z,102900.75
2022-11-12T13:56:27.343Z,102893.19
2022-11-12T13:58:53.951Z,102877.16
2022-11-12T14:01:23.009Z,102873.78
2022-11-12T14:03:51.750Z,102876.63
2022-11-12T14:06:34.886Z,102871.03
2022-11-12T14:09:28.266Z,102862.47
2022-11-12T14:12:26.121Z,102856.59
2022-11-12T14:15:23.688Z,102842.41
2022-11-12T14:18:04.770Z,102828.81
2022-11-12T14:20:37.230Z,102816.16
2022-11-12T14:23:20.114Z,102806.75
2022-11-12T14:25:57.018Z,102794.22
2022-11-12T14:28:32.938Z,102782.06
2022-11-12T14:31:01.236Z,102767.63
2022-11-12T14:33:28.686Z,102765.56
2022-11-12T14:36:02.300Z,102757.03
2022-11-12T14:38:36.975Z,102748.72
2022-11-12T14:41:08.800Z,102748.25
2022-11-12T14:43:35.509Z,102745.75
2022-11-12T14:46:04.362Z,102763.78
2022-11-12T14:48:43.955Z,102741.03
2022-11-12T14:51:12.441Z,102743.91
2022-11-12T14:53:43.773Z,102733.72
2022-11-12T14:56:32.647Z,102741.97
2022-11-12T14:59:02.121Z,102733.28
2022-11-12T15:04:25.758Z,102722.75
2022-11-12T15:06:56.607Z,102720.34
2022-11-12T15:09:34.961Z,102727.47
2022-11-12T15:12:03.303Z,102722.38
2022-11-12T15:14:30.029Z,102723.59
2022-11-12T15:16:56.783Z,102722.09
2022-11-12T15:19:25.847Z,102724.16
2022-11-12T15:21:55.301Z,102722.00
2022-11-12T15:24:29.566Z,102735.88
2022-11-12T15:26:58.188Z,102739.06
2022-11-12T15:29:33.909Z,102741.47
2022-11-12T15:32:23.180Z,102746.94
2022-11-12T15:34:50.406Z,102750.03
2022-11-12T15:37:19.993Z,102748.88
2022-11-12T15:39:49.881Z,102759.94
2022-11-12T15:42:33.666Z,102756.72
2022-11-12T15:45:03.169Z,102767.66
2022-11-12T15:47:30.240Z,102770.47
2022-11-12T15:50:01.593Z,102785.84
2022-11-12T15:52:28.086Z,102781.91
2022-11-12T15:54:54.682Z,102788.91
2022-11-12T15:57:29.158Z,102785.72
2022-11-12T16:00:06.564Z,102786.03
2022-11-12T16:02:34.931Z,102792.34
2022-11-12T16:05:01.405Z,102803.22
2022-11-12T16:07:27.846Z,102807.75
2022-11-12T16:09:54.342Z,102806.22
2022-11-12T16:12:21.015Z,102817.69
2022-11-12T16:14:47.449Z,102815.97
2022-11-12T16:17:16.522Z,102817.88
2022-11-12T16:19:43.064Z,102821.63
2022-11-12T16:22:12.753Z,102827.25
2022-11-12T16:24:40.284Z,102834.47
2022-11-12T16:27:09.564Z,102832.84
2022-11-12T16:29:36.019Z,102834.59
2022-11-12T16:32:04.455Z,102840.94
2022-11-12T16:34:30.950Z,102831.34
2022-11-12T16:36:58.134Z,102820.69
2022-11-12T16:39:24.790Z,102829.66
2022-11-12T16:41:51.223Z,102841.25
2022-11-12T16:44:17.630Z,102836.03
2022-11-12T16:46:44.158Z,102838.75
2022-11-12T16:49:16.951Z,102835.31
2022-11-12T16:51:43.363Z,102849.41
2022-11-12T16:54:09.890Z,102853.22
2022-11-12T16:56:36.530Z,102862.97
2022-11-12T16:59:03.230Z,102858.66
2022-11-12T17:01:31.983Z,102860.34
2022-11-12T17:03:59.047Z,102868.34
2022-11-12T17:06:36.578Z,102874.63
2022-11-12T17:09:07.736Z,102916.88
2022-11-12T17:11:35.250Z,102920.53
2022-11-12T17:14:02.257Z,102926.09
2022-11-12T17:16:29.406Z,102932.31
2022-11-12T17:18:57.030Z,102949.09
2022-11-12T17:21:23.550Z,102956.09
2022-11-12T17:23:50.232Z,102953.59
2022-11-12T17:26:18.918Z,102956.38
2022-11-12T17:28:46.170Z,102987.94
2022-11-12T17:31:15.076Z,102990.59
2022-11-12T17:33:49.878Z,103017.13
2022-11-12T17:36:21.957Z,103017.09
2022-11-12T17:38:48.884Z,103026.69
2022-11-12T17:41:15.456Z,103029.31
2022-11-12T17:43:41.996Z,103046.84
2022-11-12T17:46:09.515Z,103044.25
2022-11-12T17:48:37.465Z,103044.31
2022-11-12T17:51:08.070Z,103040.75
2022-11-12T17:53:35.926Z,103043.47
2022-11-12T17:56:03.014Z,103040.00
2022-11-12T17:58:29.599Z,103030.44
2022-11-12T18:01:06.546Z,103028.63
2022-11-12T18:03:33.057Z,103025.16
2022-11-12T18:06:00.214Z,103020.81
2022-11-12T18:08:26.683Z,103021.75
2022-11-12T18:10:53.104Z,103015.63
2022-11-12T18:13:19.668Z,103020.88
2022-11-12T18:15:46.092Z,103017.47
2022-11-12T18:18:12.587Z,103015.72
2022-11-12T18:20:40.641Z,103018.41
2022-11-12T18:23:07.101Z,103022.81
2022-11-12T18:25:35.751Z,103024.63
2022-11-12T18:28:02.147Z,103023.72
2022-11-12T18:30:28.568Z,103030.84
2022-11-12T18:32:55.013Z,103034.41
2022-11-12T18:35:24.630Z,103036.09
2022-11-12T18:37:53.957Z,103029.06
2022-11-12T18:40:21.344Z,103036.06
2022-11-12T18:42:47.866Z,103025.59
2022-11-12T18:45:14.290Z,103023.88
2022-11-12T18:47:40.803Z,103021.28
2022-11-12T18:50:09.072Z,103026.63
2022-11-12T18:52:35.834Z,103032.78
2022-11-12T18:55:02.952Z,103038.09
2022-11-12T18:57:29.337Z,103054.75
2022-11-12T18:59:55.770Z,103052.13
2022-11-12T19:02:22.243Z,103045.06
2022-11-12T19:04:49.867Z,103055.63
2022-11-12T19:07:16.397Z,103052.03
2022-11-12T19:09:42.826Z,103041.44
2022-11-12T19:12:09.285Z,103036.19
2022-11-12T19:14:35.762Z,103036.75
2022-11-12T19:17:02.147Z,103036.78
2022-11-12T19:19:28.573Z,103029.03
2022-11-12T19:21:54.969Z,103024.50
2022-11-12T19:24:21.372Z,103023.53
2022-11-12T19:26:47.765Z,102833.50
2022-11-12T19:29:14.236Z,102824.78
2022-11-12T19:31:40.867Z,102822.38
2022-11-12T19:34:07.303Z,102818.69
2022-11-12T19:36:33.751Z,102802.66
2022-11-12T19:39:02.469Z,102800.97
2022-11-12T19:41:28.935Z,102792.25
2022-11-12T19:43:55.815Z,102795.03
2022-11-12T19:46:22.269Z,102797.72
2022-11-12T19:48:48.845Z,102798.59
2022-11-12T19:51:15.375Z,102785.84
2022-11-12T19:53:46.179Z,102792.84
2022-11-12T19:56:16.849Z,102794.97
2022-11-12T19:58:48.005Z,102794.16
2022-11-12T20:01:16.820Z,102795.06
2022-11-12T20:03:43.846Z,102795.22
2022-11-12T20:06:13.146Z,102804.13
2022-11-12T20:08:39.585Z,102806.75
2022-11-12T20:11:06.316Z,102819.16
2022-11-12T20:13:32.863Z,102816.59
2022-11-12T20:15:59.318Z,102822.00
2022-11-12T20:18:26.051Z,102822.06
2022-11-12T20:20:55.619Z,102818.50
2022-11-12T20:23:26.934Z,102822.00
2022-11-12T20:25:53.881Z,102822.72
2022-11-12T20:28:20.299Z,102834.03
2022-11-12T20:30:46.741Z,102840.06
2022-11-12T20:33:13.554Z,102844.50
2022-11-12T20:35:39.954Z,102826.69
2022-11-12T20:38:06.403Z,102826.53
2022-11-12T20:40:32.806Z,102818.78
2022-11-12T20:42:59.250Z,102819.03
2022-11-12T20:45:27.074Z,102826.19
2022-11-12T20:47:56.414Z,102823.56
2022-11-12T20:50:23.568Z,102826.34
2022-11-12T20:52:50.282Z,102834.41
2022-11-12T20:55:16.994Z,102842.22
2022-11-12T20:57:43.442Z,102820.13
2022-11-12T21:00:13.786Z,102834.47
2022-11-12T21:02:40.693Z,102843.38
2022-11-12T21:05:07.377Z,102852.25
2022-11-12T21:07:33.873Z,102854.94
2022-11-12T21:10:00.346Z,102866.41
2022-11-12T21:12:27.221Z,102862.94
2022-11-12T21:14:53.646Z,102870.00
2022-11-12T21:17:20.095Z,102884.06
2022-11-12T21:19:46.526Z,102885.84
2022-11-12T21:22:15.418Z,102884.97
2022-11-12T21:24:41.889Z,102885.91
2022-11-12T21:27:08.614Z,102888.53
2022-11-12T21:29:35.026Z,102887.69
2022-11-12T21:32:01.468Z,102897.41
2022-11-12T21:34:27.949Z,102905.31
2022-11-12T21:36:54.581Z,102913.19
2022-11-12T21:39:20.974Z,102907.06
2022-11-12T21:41:47.422Z,102903.53
2022-11-12T21:44:13.841Z,102907.06
2022-11-12T21:46:40.422Z,102907.09
2022-11-12T21:49:06.889Z,102897.44
2022-11-12T21:51:33.732Z,102926.34
2022-11-12T21:54:05.377Z,102937.78
2022-11-12T21:56:34.021Z,102943.91
2022-11-12T21:59:01.491Z,102933.41
2022-11-12T22:01:30.284Z,102936.03
2022-11-12T22:03:58.740Z,102949.13
2022-11-12T22:06:27.997Z,102943.88
2022-11-12T22:08:56.069Z,102940.41
2022-11-12T22:11:23.115Z,102944.75
2022-11-12T22:13:49.951Z,102945.63
2022-11-12T22:16:20.001Z,102952.63
2022-11-12T22:18:48.818Z,102954.44
2022-11-12T22:21:17.929Z,102943.91
2022-11-12T22:23:44.904Z,102952.66
2022-11-12T22:26:14.462Z,102954.41
2022-11-12T22:28:41.142Z,102958.84
2022-11-12T22:31:10.731Z,102956.22
2022-11-12T22:33:37.578Z,102971.13
2022-11-12T22:36:06.477Z,102968.50
2022-11-12T22:38:37.866Z,102968.50
2022-11-12T22:41:10.322Z,102971.16
2022-11-12T22:43:37.867Z,102972.03
2022-11-12T22:46:12.768Z,102982.50
2022-11-12T22:48:40.148Z,102979.03
2022-11-12T22:51:15.301Z,102972.00
2022-11-12T22:53:41.806Z,102978.16
2022-11-12T22:56:10.205Z,102982.56
2022-11-12T22:58:37.741Z,102985.19
2022-11-12T23:01:05.795Z,102984.31
2022-11-12T23:03:33.961Z,102993.06
2022-11-12T23:06:03.437Z,103069.34
2022-11-12T23:08:31.272Z,103082.47
2022-11-12T23:11:01.687Z,103087.72
2022-11-12T23:13:28.123Z,103094.72
2022-11-12T23:15:54.543Z,103099.09
2022-11-12T23:18:21.059Z,103097.38
2022-11-12T23:20:47.682Z,103090.31
2022-11-12T23:23:14.530Z,103092.06
2022-11-12T23:25:40.962Z,103110.50
2022-11-12T23:28:07.717Z,103114.00
2022-11-12T23:30:35.455Z,103128.00
2022-11-12T23:33:02.333Z,103125.38
2022-11-12T23:35:30.069Z,103135.00
2022-11-12T23:37:56.567Z,103120.09
2022-11-12T23:40:26.095Z,103120.13
2022-11-12T23:42:56.142Z,103120.13
2022-11-12T23:45:22.631Z,103128.84
2022-11-12T23:47:49.009Z,103130.59
2022-11-12T23:50:15.678Z,103116.59
2022-11-12T23:52:42.082Z,103123.59
2022-11-12T23:55:08.592Z,103127.09
2022-11-12T23:57:35.017Z,103134.06
